Time;durP1;ratioP1;P1;durP2;ratioP2;P2;SDS_P1;SDS_P2;PMS_P1;PMS_P2;Temp;Humidity;BMP_temperature;BMP_pressure;BME280_temperature;BME280_humidity;BME280_pressure;Samples;Min_cycle;Max_cycle;Signal;HPM_P1;HPM_P2
2023/03/08 00:00:19;;;;;;;4.60;2.30;;;;;;;0.95;79.89;98121.55;102460;1254;1002978;-70
2023/03/08 00:03:16;;;;;;;6.10;2.70;;;;;;;0.92;80.04;98123.34;103263;1254;107696;-70
2023/03/08 00:05:44;;;;;;;4.50;2.50;;;;;;;0.90;80.01;98125.10;103166;1257;137942;-70
2023/03/08 00:08:13;;;;;;;5.30;2.70;;;;;;;0.87;80.26;98126.49;103242;1254;111574;-69
2023/03/08 00:10:44;;;;;;;4.00;2.70;;;;;;;0.86;80.34;98123.81;102442;1257;1002818;-70
2023/03/08 00:13:12;;;;;;;3.40;2.80;;;;;;;0.84;80.46;98123.71;103236;1254;97705;-70
2023/03/08 00:15:40;;;;;;;4.30;3.20;;;;;;;0.80;80.48;98124.31;103273;1254;108215;-70
2023/03/08 00:18:10;;;;;;;6.30;3.90;;;;;;;0.79;80.63;98126.26;103113;1257;138076;-70
2023/03/08 00:20:40;;;;;;;6.50;3.40;;;;;;;0.77;80.78;98119.98;103277;1254;111232;-70
2023/03/08 00:23:28;;;;;;;4.70;3.80;;;;;;;0.76;80.86;98117.75;103027;1258;137927;-70
2023/03/08 00:26:10;;;;;;;7.30;3.50;;;;;;;0.76;80.73;98112.13;103189;1258;99099;-70
2023/03/08 00:28:58;;;;;;;7.30;4.10;;;;;;;0.74;80.74;98110.98;103204;1257;138297;-70
2023/03/08 00:31:36;;;;;;;6.90;4.00;;;;;;;0.72;80.84;98111.89;103170;1254;97983;-71
2023/03/08 00:34:07;;;;;;;5.50;4.20;;;;;;;0.69;80.85;98115.36;103120;1254;111258;-70
2023/03/08 00:36:39;;;;;;;6.40;4.40;;;;;;;0.69;80.97;98118.44;103046;1258;137968;-70
2023/03/08 00:39:27;;;;;;;7.20;4.40;;;;;;;0.69;81.07;98120.51;103198;1256;97782;-70
2023/03/08 00:42:07;;;;;;;5.40;4.00;;;;;;;0.68;81.14;98117.98;103007;1257;137858;-70
2023/03/08 00:44:55;;;;;;;6.40;4.20;;;;;;;0.64;81.25;98117.92;103115;1259;97770;-70
2023/03/08 00:47:43;;;;;;;5.70;4.00;;;;;;;0.61;81.26;98117.66;103109;1254;137788;-70
2023/03/08 00:50:31;;;;;;;6.70;3.90;;;;;;;0.56;81.28;98125.12;103263;1257;109186;-69
2023/03/08 00:53:08;;;;;;;7.30;4.20;;;;;;;0.51;81.29;98124.05;103064;1257;138597;-69
2023/03/08 00:55:51;;;;;;;4.70;3.50;;;;;;;0.46;81.33;98121.62;103230;1254;107897;-70
2023/03/08 00:58:30;;;;;;;5.20;3.40;;;;;;;0.44;81.59;98116.21;103488;1257;98443;-69
2023/03/08 01:01:00;;;;;;;7.00;3.30;;;;;;;0.41;81.66;98121.08;102886;1256;137785;-69
2023/03/08 01:03:33;;;;;;;6.60;3.50;;;;;;;0.38;81.65;98119.30;103017;1254;108184;-69
2023/03/08 01:06:14;;;;;;;4.80;3.70;;;;;;;0.33;81.69;98114.41;102183;1255;1002956;-69
2023/03/08 01:08:44;;;;;;;5.90;3.40;;;;;;;0.30;81.55;98112.46;103052;1254;107791;-69
2023/03/08 01:11:24;;;;;;;4.50;3.20;;;;;;;0.25;81.78;98111.40;102960;1254;138178;-69
2023/03/08 01:13:56;;;;;;;6.60;3.30;;;;;;;0.21;81.85;98109.44;103308;1257;111648;-70
2023/03/08 01:16:25;;;;;;;6.40;3.40;;;;;;;0.20;81.91;98110.15;103226;1257;107799;-69
2023/03/08 01:18:53;;;;;;;7.50;3.50;;;;;;;0.19;81.83;98109.15;103088;1254;138060;-70
2023/03/08 01:21:41;;;;;;;5.00;3.10;;;;;;;0.16;81.82;98111.92;103215;1257;106630;-69
2023/03/08 01:24:10;;;;;;;6.70;3.30;;;;;;;0.16;81.89;98108.86;103004;1260;138048;-69
2023/03/08 01:26:40;;;;;;;6.50;2.80;;;;;;;0.16;82.08;98102.35;103200;1254;111084;-70
2023/03/08 01:29:07;;;;;;;5.00;3.00;;;;;;;0.17;81.96;98100.65;103093;1253;138313;-70
2023/03/08 01:31:49;;;;;;;6.70;3.30;;;;;;;0.15;82.02;98102.40;102558;1257;1003013;-69
2023/03/08 01:34:35;;;;;;;4.30;2.60;;;;;;;0.14;82.02;98100.89;103279;1255;108592;-70
2023/03/08 01:37:06;;;;;;;3.90;2.80;;;;;;;0.13;82.09;98094.77;103142;1254;137813;-70
2023/03/08 01:39:33;;;;;;;5.00;2.70;;;;;;;0.10;82.05;98091.44;102570;1254;1003124;-69
2023/03/08 01:42:11;;;;;;;5.30;2.90;;;;;;;0.08;82.18;98087.73;102465;1257;1002461;-69
2023/03/08 01:45:00;;;;;;;6.60;3.20;;;;;;;0.03;82.31;98087.67;102497;1260;1002546;-69
2023/03/08 01:47:31;;;;;;;4.70;3.00;;;;;;;-0.02;82.29;98090.32;103428;1257;138212;-69
2023/03/08 01:50:22;;;;;;;7.50;3.10;;;;;;;-0.03;82.37;98093.42;103249;1254;97884;-69
2023/03/08 01:52:55;;;;;;;5.20;2.80;;;;;;;-0.05;82.42;98098.27;103159;1257;138166;-69
2023/03/08 01:55:44;;;;;;;4.50;2.80;;;;;;;-0.07;82.51;98097.46;103324;1254;108278;-70
2023/03/08 01:58:25;;;;;;;6.90;2.60;;;;;;;-0.10;82.44;98095.00;103319;1257;98325;-70
2023/03/08 02:01:10;;;;;;;3.70;2.60;;;;;;;-0.13;82.59;98091.63;102632;1254;1003335;-70
2023/03/08 02:03:50;;;;;;;6.20;2.30;;;;;;;-0.12;82.59;98095.20;103303;1255;97834;-70
2023/03/08 02:06:38;;;;;;;9.00;2.60;;;;;;;-0.12;82.62;98100.31;102436;1254;1002809;-70
2023/03/08 02:09:08;;;;;;;6.60;2.70;;;;;;;-0.11;82.53;98100.66;102407;1256;1016503;-70
2023/03/08 02:11:38;;;;;;;6.90;2.20;;;;;;;-0.11;82.53;98097.91;103188;1257;138295;-70
2023/03/08 02:14:06;;;;;;;11.20;2.40;;;;;;;-0.11;82.50;98103.21;103124;1254;107528;-70
2023/03/08 02:16:37;;;;;;;3.30;2.00;;;;;;;-0.12;82.54;98099.99;103151;1254;97846;-70
2023/03/08 02:19:27;;;;;;;8.90;2.10;;;;;;;-0.13;82.52;98101.04;103260;1258;111226;-70
2023/03/08 02:21:58;;;;;;;6.60;2.10;;;;;;;-0.14;82.45;98102.44;103339;1256;107687;-71
2023/03/08 02:24:29;;;;;;;6.10;2.20;;;;;;;-0.14;82.46;98103.28;103073;1254;138119;-70
2023/03/08 02:27:06;;;;;;;4.40;2.00;;;;;;;-0.15;82.42;98103.98;103158;1254;106391;-70
2023/03/08 02:29:34;;;;;;;7.10;2.10;;;;;;;-0.14;82.48;98108.07;103005;1254;138397;-70
2023/03/08 02:32:06;;;;;;;6.40;2.30;;;;;;;-0.15;82.43;98114.42;103260;1254;112035;-70
2023/03/08 02:34:53;;;;;;;7.50;2.30;;;;;;;-0.16;82.34;98113.58;102526;1255;1002794;-70
2023/03/08 02:37:21;;;;;;;6.50;2.30;;;;;;;-0.16;82.28;98114.25;103118;1256;97748;-70
2023/03/08 02:40:01;;;;;;;3.90;1.90;;;;;;;-0.16;82.20;98118.18;103220;1254;107240;-70
2023/03/08 02:42:38;;;;;;;5.80;2.30;;;;;;;-0.15;82.30;98123.12;103086;1257;138153;-71
2023/03/08 02:45:27;;;;;;;9.60;2.30;;;;;;;-0.14;82.09;98127.72;102410;1257;1003154;-70
2023/03/08 02:47:54;;;;;;;8.70;2.70;;;;;;;-0.14;82.13;98134.02;103078;1255;138333;-72
2023/03/08 02:50:42;;;;;;;5.80;2.30;;;;;;;-0.13;82.15;98126.50;101184;1267;1002990;-69
2023/03/08 02:53:10;;;;;;;7.10;2.10;;;;;;;-0.12;82.08;98128.67;101874;1266;1002966;-71
2023/03/08 02:55:48;;;;;;;5.10;2.10;;;;;;;-0.10;82.20;98129.31;102040;1266;1016509;-72
2023/03/08 02:58:16;;;;;;;5.60;2.20;;;;;;;-0.09;82.02;98138.85;102729;1263;112346;-71
2023/03/08 03:01:10;;;;;;;8.70;2.20;;;;;;;-0.08;81.99;98139.18;102580;1261;138522;-70
2023/03/08 03:03:41;;;;;;;4.70;2.20;;;;;;;-0.07;82.10;98138.98;102846;1260;97808;-69
2023/03/08 03:06:21;;;;;;;9.30;2.90;;;;;;;-0.07;81.97;98147.02;102562;1267;138057;-70
2023/03/08 03:08:51;;;;;;;7.40;3.00;;;;;;;-0.06;82.02;98148.00;101850;1261;1002577;-69
2023/03/08 03:11:21;;;;;;;5.30;2.70;;;;;;;-0.05;82.00;98151.55;102515;1260;138512;-70
2023/03/08 03:13:56;;;;;;;5.40;2.40;;;;;;;-0.03;81.97;98151.17;102563;1266;107835;-71
2023/03/08 03:16:44;;;;;;;4.90;2.30;;;;;;;-0.03;82.14;98144.34;102735;1262;97822;-70
2023/03/08 03:19:14;;;;;;;5.50;2.70;;;;;;;-0.05;82.01;98159.95;102550;1262;138966;-70
2023/03/08 03:21:42;;;;;;;8.50;2.50;;;;;;;-0.04;82.15;98165.73;102857;1256;97898;-71
2023/03/08 03:24:09;;;;;;;5.50;2.50;;;;;;;-0.04;82.16;98173.57;103020;1256;138206;-70
2023/03/08 03:26:53;;;;;;;5.60;3.00;;;;;;;-0.04;82.38;98174.92;101197;1257;2764643;-70
2023/03/08 03:29:41;;;;;;;6.30;2.90;;;;;;;-0.04;82.36;98163.49;102413;1254;1002929;-70
2023/03/08 03:32:19;;;;;;;6.60;3.60;;;;;;;-0.03;82.50;98163.48;103072;1257;106432;-70
2023/03/08 03:34:53;;;;;;;6.80;3.50;;;;;;;-0.05;82.37;98169.34;103321;1254;97762;-70
2023/03/08 03:37:30;;;;;;;7.50;3.50;;;;;;;-0.05;82.52;98179.94;103253;1254;112215;-70
2023/03/08 03:40:18;;;;;;;5.10;2.90;;;;;;;-0.05;82.71;98174.96;102463;1257;1003723;-70
2023/03/08 03:42:50;;;;;;;8.00;3.40;;;;;;;-0.03;82.85;98177.65;103164;1254;138419;-69
2023/03/08 03:45:37;;;;;;;5.00;3.60;;;;;;;-0.01;82.83;98183.42;103444;1254;108472;-69
2023/03/08 03:48:25;;;;;;;8.00;4.70;;;;;;;0.01;82.87;98183.92;103181;1257;138179;-69
2023/03/08 03:50:59;;;;;;;8.70;4.70;;;;;;;0.03;82.95;98188.84;103297;1258;111676;-69
2023/03/08 03:53:37;;;;;;;8.50;5.30;;;;;;;0.03;83.11;98191.21;103952;1255;138248;-69
2023/03/08 03:56:27;;;;;;;8.50;4.60;;;;;;;0.05;83.16;98191.00;102570;1254;1016078;-70
2023/03/08 03:58:57;;;;;;;10.40;5.80;;;;;;;0.07;83.22;98197.27;103081;1255;138342;-70
2023/03/08 04:01:27;;;;;;;7.70;5.70;;;;;;;0.09;83.28;98198.08;103360;1254;97960;-70
2023/03/08 04:04:01;;;;;;;8.50;5.20;;;;;;;0.09;83.31;98202.34;103353;1257;112204;-69
2023/03/08 04:06:49;;;;;;;9.70;5.70;;;;;;;0.12;83.38;98201.25;102429;1257;1002496;-70
2023/03/08 04:09:37;;;;;;;14.10;6.40;;;;;;;0.12;83.39;98205.52;102402;1258;1002919;-70
2023/03/08 04:12:09;;;;;;;12.30;6.80;;;;;;;0.12;83.33;98207.91;102859;1256;138403;-71
2023/03/08 04:14:56;;;;;;;9.40;6.50;;;;;;;0.11;83.61;98208.61;103227;1254;97913;-70
2023/03/08 04:17:29;;;;;;;14.30;6.80;;;;;;;0.12;83.56;98207.58;103078;1257;138390;-70
2023/03/08 04:20:07;;;;;;;10.10;6.60;;;;;;;0.11;83.63;98203.31;103145;1260;106632;-70
2023/03/08 04:22:40;;;;;;;11.30;7.70;;;;;;;0.10;83.77;98207.60;103624;1256;97801;-70
2023/03/08 04:25:14;;;;;;;15.40;8.00;;;;;;;0.11;83.83;98205.36;103041;1256;137874;-70
2023/03/08 04:28:02;;;;;;;13.40;8.70;;;;;;;0.11;83.91;98199.39;102405;1254;1003760;-70
2023/03/08 04:30:40;;;;;;;15.10;9.00;;;;;;;0.12;84.03;98201.94;102399;1254;1140363;-69
2023/03/08 04:33:11;;;;;;;13.80;8.90;;;;;;;0.12;84.02;98202.45;103075;1256;108415;-70
2023/03/08 04:35:43;;;;;;;12.40;8.50;;;;;;;0.12;83.97;98209.27;102908;1260;138229;-70
2023/03/08 04:38:32;;;;;;;15.10;9.60;;;;;;;0.10;83.96;98205.23;103177;1254;107720;-69
2023/03/08 04:41:20;;;;;;;14.10;8.80;;;;;;;0.07;83.90;98207.01;103108;1254;138327;-69
2023/03/08 04:44:03;;;;;;;13.80;9.30;;;;;;;0.04;84.02;98214.60;103097;1260;110272;-71
2023/03/08 04:46:45;;;;;;;13.40;9.80;;;;;;;0.03;83.98;98219.40;103178;1257;106952;-71
2023/03/08 04:49:16;;;;;;;16.10;10.10;;;;;;;0.04;84.12;98224.86;103095;1254;138157;-69
2023/03/08 04:51:46;;;;;;;15.50;10.70;;;;;;;0.03;84.02;98233.25;103312;1254;108417;-69
2023/03/08 04:54:13;;;;;;;16.70;10.70;;;;;;;0.01;84.13;98231.93;103115;1254;139092;-70
2023/03/08 04:56:54;;;;;;;16.30;10.30;;;;;;;-0.00;84.19;98231.59;103223;1255;111277;-69
2023/03/08 04:59:33;;;;;;;16.40;10.50;;;;;;;0.00;84.33;98234.67;103090;1255;138730;-70
2023/03/08 05:02:04;;;;;;;15.60;11.10;;;;;;;-0.00;84.26;98235.01;102994;1259;97923;-70
2023/03/08 05:04:44;;;;;;;16.00;11.40;;;;;;;0.00;84.36;98239.45;103265;1254;108323;-70
2023/03/08 05:07:14;;;;;;;19.30;11.60;;;;;;;0.01;84.43;98242.52;102868;1256;138219;-70
2023/03/08 05:09:53;;;;;;;18.80;11.40;;;;;;;0.02;84.48;98249.33;103143;1254;112372;-71
2023/03/08 05:12:30;;;;;;;16.80;11.80;;;;;;;0.04;84.39;98245.86;103015;1254;138831;-69
2023/03/08 05:14:59;;;;;;;16.50;11.80;;;;;;;0.05;84.42;98248.41;103221;1253;97933;-70
2023/03/08 05:17:36;;;;;;;19.00;11.40;;;;;;;0.05;84.48;98253.02;103232;1255;138383;-68
2023/03/08 05:20:08;;;;;;;15.30;11.60;;;;;;;0.06;84.43;98260.17;103154;1257;97775;-72
2023/03/08 05:22:39;;;;;;;18.30;13.00;;;;;;;0.07;84.20;98260.50;103132;1255;111579;-71
2023/03/08 05:25:44;;;;;;;16.40;11.70;;;;;;;0.07;84.25;98267.50;102548;1254;1003051;-69
2023/03/08 05:28:35;;;;;;;19.00;11.70;;;;;;;0.08;84.19;98267.30;102834;1254;1002406;-67
2023/03/08 05:31:10;;;;;;;13.00;8.60;;;;;;;0.08;83.91;98270.71;102395;1255;1003714;-68
2023/03/08 05:33:58;;;;;;;20.60;12.60;;;;;;;0.08;83.69;98271.41;103282;1254;97814;-68
2023/03/08 05:36:35;;;;;;;17.40;12.10;;;;;;;0.09;83.54;98275.30;103226;1256;138165;-70
2023/03/08 05:39:06;;;;;;;18.90;12.50;;;;;;;0.09;83.34;98279.06;103137;1254;108159;-70
2023/03/08 05:41:40;;;;;;;16.70;12.00;;;;;;;0.08;83.15;98280.63;103491;1260;138723;-69
2023/03/08 05:44:08;;;;;;;20.00;11.90;;;;;;;0.07;83.12;98282.86;103496;1255;108006;-69
2023/03/08 05:46:37;;;;;;;19.80;12.80;;;;;;;0.08;83.04;98290.71;103192;1257;97890;-70
2023/03/08 05:49:06;;;;;;;17.70;12.20;;;;;;;0.09;83.15;98289.66;103282;1257;138784;-70
2023/03/08 05:51:38;;;;;;;17.30;12.60;;;;;;;0.10;83.14;98299.55;103219;1254;109153;-68
2023/03/08 05:54:10;;;;;;;19.10;12.30;;;;;;;0.11;83.09;98301.23;103192;1254;138314;-67
2023/03/08 05:56:39;;;;;;;17.60;12.90;;;;;;;0.13;82.95;98308.02;103210;1260;107125;-70
2023/03/08 05:59:17;;;;;;;18.90;12.50;;;;;;;0.15;82.98;98311.55;103219;1254;139053;-70
2023/03/08 06:01:45;;;;;;;18.80;12.70;;;;;;;0.18;82.60;98314.42;103165;1257;111745;-69
2023/03/08 06:04:35;;;;;;;19.50;12.10;;;;;;;0.19;82.48;98315.95;103244;1254;107517;-70
2023/03/08 06:07:03;;;;;;;18.80;13.10;;;;;;;0.16;82.31;98327.59;102348;1260;1003508;-70
2023/03/08 06:09:40;;;;;;;18.30;12.10;;;;;;;0.16;82.23;98328.63;103400;1257;108664;-69
2023/03/08 06:12:11;;;;;;;17.30;11.40;;;;;;;0.17;81.94;98341.76;102390;1257;1002887;-70
2023/03/08 06:14:43;;;;;;;19.00;11.50;;;;;;;0.20;81.98;98349.58;103396;1255;111318;-68
2023/03/08 06:17:31;;;;;;;20.00;11.40;;;;;;;0.31;81.99;98356.02;103140;1255;138484;-68
2023/03/08 06:20:19;;;;;;;18.00;10.90;;;;;;;0.43;81.55;98357.11;103212;1258;97785;-74
2023/03/08 06:22:59;;;;;;;19.00;10.50;;;;;;;0.58;80.99;98360.71;103036;1254;107992;-81
2023/03/08 06:25:27;;;;;;;13.00;9.90;;;;;;;0.75;80.36;98362.58;102957;1257;97797;-79
2023/03/08 06:28:14;;;;;;;14.80;9.70;;;;;;;0.91;79.75;98363.04;103187;1256;113424;-78
2023/03/08 06:31:01;;;;;;;12.50;8.60;;;;;;;1.13;79.27;98371.58;102840;1254;138074;-79
2023/03/08 06:33:34;;;;;;;11.00;8.20;;;;;;;1.54;78.75;98370.74;103137;1257;98812;-73
2023/03/08 06:36:08;;;;;;;11.90;8.50;;;;;;;1.73;77.80;98376.91;103032;1256;138165;-72
2023/03/08 06:38:46;;;;;;;13.10;9.00;;;;;;;1.97;77.85;98383.13;103248;1254;97654;-75
2023/03/08 06:41:19;;;;;;;14.30;7.70;;;;;;;3.44;77.73;98380.02;103110;1257;138117;-69
2023/03/08 06:43:50;;;;;;;12.00;6.70;;;;;;;4.94;74.09;98374.42;103109;1256;107688;-71
2023/03/08 06:46:19;;;;;;;10.50;7.00;;;;;;;5.92;72.76;98380.73;103113;1257;97675;-73
2023/03/08 06:48:48;;;;;;;9.80;6.80;;;;;;;7.55;70.09;98380.08;102847;1254;139134;-71
2023/03/08 06:51:16;;;;;;;12.20;6.60;;;;;;;8.97;65.34;98382.52;103155;1254;97874;-70
2023/03/08 06:53:44;;;;;;;8.80;5.80;;;;;;;10.36;64.78;98381.69;103173;1257;137679;-72
2023/03/08 06:56:15;;;;;;;7.00;5.60;;;;;;;11.87;62.41;98378.63;103004;1254;108368;-74
2023/03/08 06:58:43;;;;;;;8.10;5.70;;;;;;;13.10;59.66;98376.37;103260;1256;97982;-72
2023/03/08 07:01:12;;;;;;;7.70;5.30;;;;;;;14.20;56.84;98371.27;102998;1260;137437;-71
2023/03/08 07:03:39;;;;;;;8.20;5.10;;;;;;;14.96;54.98;98374.68;103145;1255;98710;-73
2023/03/08 07:06:09;;;;;;;7.10;4.70;;;;;;;15.76;52.72;98365.66;103061;1254;137479;-73
2023/03/08 07:08:38;;;;;;;5.60;4.60;;;;;;;16.53;51.44;98369.81;103169;1257;106531;-72
2023/03/08 07:11:07;;;;;;;7.60;4.60;;;;;;;17.14;48.72;98359.57;102885;1254;137781;-71
2023/03/08 07:13:35;;;;;;;7.00;4.80;;;;;;;17.71;48.24;98367.82;103198;1257;109091;-73
2023/03/08 07:16:08;;;;;;;6.20;4.50;;;;;;;18.30;46.11;98371.34;103191;1258;97925;-74
2023/03/08 07:18:35;;;;;;;6.10;4.80;;;;;;;18.70;44.86;98374.18;103147;1254;137861;-73
2023/03/08 07:21:03;;;;;;;6.10;4.20;;;;;;;18.85;43.34;98377.31;103100;1257;106698;-72
2023/03/08 07:23:30;;;;;;;7.50;4.50;;;;;;;18.92;42.75;98379.48;103113;1258;137789;-72
2023/03/08 07:25:58;;;;;;;5.10;4.30;;;;;;;18.88;41.47;98382.17;103138;1257;106950;-73
2023/03/08 07:28:25;;;;;;;7.10;4.50;;;;;;;19.05;41.42;98379.46;103194;1257;98358;-73
2023/03/08 07:30:54;;;;;;;5.90;4.40;;;;;;;19.48;41.02;98378.77;103115;1258;137570;-71
2023/03/08 07:33:22;;;;;;;5.40;4.60;;;;;;;19.85;40.74;98374.79;103179;1256;108569;-72
2023/03/08 07:35:49;;;;;;;7.60;4.60;;;;;;;20.36;39.69;98372.55;103065;1256;137821;-72
2023/03/08 07:38:17;;;;;;;7.30;4.60;;;;;;;20.50;38.39;98383.39;103136;1254;107447;-72
2023/03/08 07:40:44;;;;;;;8.70;4.60;;;;;;;20.40;37.85;98385.14;103212;1254;98345;-72
2023/03/08 07:43:12;;;;;;;8.70;5.40;;;;;;;19.53;37.29;98385.67;103014;1256;138549;-72
2023/03/08 07:45:55;;;;;;;6.90;4.30;;;;;;;18.23;37.59;98395.84;103107;1256;108691;-71
2023/03/08 07:48:22;;;;;;;11.20;5.20;;;;;;;16.62;36.66;98400.08;103086;1256;137574;-71
2023/03/08 07:50:50;;;;;;;8.80;5.10;;;;;;;15.02;38.05;98413.64;103147;1255;107874;-71
2023/03/08 07:53:17;;;;;;;7.90;4.80;;;;;;;13.88;39.75;98416.56;103107;1256;137993;-71
2023/03/08 07:55:44;;;;;;;8.50;4.50;;;;;;;13.93;40.04;98413.77;103190;1256;111303;-73
2023/03/08 07:58:12;;;;;;;8.00;5.00;;;;;;;14.23;39.18;98415.19;103167;1254;106695;-72
2023/03/08 08:00:39;;;;;;;7.90;5.00;;;;;;;13.97;39.96;98416.41;103030;1256;137632;-72
2023/03/08 08:03:07;;;;;;;10.30;5.00;;;;;;;14.08;39.74;98422.23;103105;1259;107582;-72
2023/03/08 08:05:36;;;;;;;6.70;5.00;;;;;;;14.20;39.49;98424.42;103089;1256;137940;-72
2023/03/08 08:08:04;;;;;;;10.80;4.60;;;;;;;14.19;39.73;98427.01;103239;1258;111934;-71
2023/03/08 08:10:31;;;;;;;8.30;5.40;;;;;;;14.23;39.86;98434.20;103102;1261;108713;-71
2023/03/08 08:12:58;;;;;;;5.60;4.40;;;;;;;14.71;39.49;98433.63;103214;1257;137651;-72
2023/03/08 08:15:26;;;;;;;5.70;4.10;;;;;;;15.04;38.29;98425.30;103162;1254;106559;-71
2023/03/08 08:17:53;;;;;;;7.30;4.20;;;;;;;15.08;38.46;98435.31;103167;1256;137608;-72
2023/03/08 08:20:23;;;;;;;7.10;4.30;;;;;;;15.72;38.67;98435.38;103302;1256;111233;-70
2023/03/08 08:22:52;;;;;;;6.00;4.10;;;;;;;15.86;36.99;98438.27;103231;1257;107716;-71
2023/03/08 08:25:20;;;;;;;4.40;3.40;;;;;;;15.14;36.71;98442.14;103332;1256;137928;-72
2023/03/08 08:27:47;;;;;;;6.80;4.40;;;;;;;15.47;37.31;98442.63;103175;1256;108021;-72
2023/03/08 08:30:16;;;;;;;10.00;3.90;;;;;;;15.87;36.56;98439.27;103187;1254;137579;-71
2023/03/08 08:32:43;;;;;;;11.20;4.30;;;;;;;15.82;36.50;98440.37;103223;1257;110821;-73
2023/03/08 08:35:11;;;;;;;5.60;4.20;;;;;;;15.32;36.60;98447.20;103117;1254;138000;-71
2023/03/08 08:37:38;;;;;;;7.10;4.20;;;;;;;14.59;36.38;98448.94;103201;1257;97825;-71
2023/03/08 08:40:09;;;;;;;6.70;4.20;;;;;;;13.89;36.97;98451.08;103198;1258;107540;-70
2023/03/08 08:42:36;;;;;;;6.40;4.40;;;;;;;13.31;37.31;98453.57;103264;1258;137808;-71
2023/03/08 08:45:04;;;;;;;7.70;4.50;;;;;;;13.12;37.91;98460.34;103167;1258;110534;-72
2023/03/08 08:47:31;;;;;;;10.10;4.30;;;;;;;13.41;37.87;98464.76;103117;1254;137869;-71
2023/03/08 08:49:59;;;;;;;8.10;3.80;;;;;;;13.38;38.32;98463.19;103204;1255;97801;-71
2023/03/08 08:52:26;;;;;;;6.30;4.30;;;;;;;13.59;37.98;98458.73;103175;1257;108409;-72
2023/03/08 08:54:55;;;;;;;7.20;4.30;;;;;;;13.49;38.02;98462.42;103109;1258;137616;-71
2023/03/08 08:57:23;;;;;;;6.50;3.90;;;;;;;13.85;37.57;98465.86;103208;1256;111442;-72
2023/03/08 08:59:50;;;;;;;6.70;4.10;;;;;;;14.23;37.72;98463.33;103504;1254;138051;-73
2023/03/08 09:02:17;;;;;;;5.90;3.30;;;;;;;14.65;37.14;98468.23;104091;1256;97341;-72
2023/03/08 09:04:45;;;;;;;5.70;3.70;;;;;;;14.61;36.48;98473.28;103229;1256;107019;-72
2023/03/08 09:07:12;;;;;;;6.70;3.60;;;;;;;14.56;36.39;98474.19;103107;1256;137808;-71
2023/03/08 09:09:40;;;;;;;6.50;3.30;;;;;;;14.68;36.58;98470.84;103307;1257;111170;-70
2023/03/08 09:12:08;;;;;;;8.00;3.70;;;;;;;14.51;35.74;98467.25;103031;1256;137636;-71
2023/03/08 09:14:35;;;;;;;5.70;3.40;;;;;;;14.18;35.97;98471.42;103221;1258;98090;-72
2023/03/08 09:17:05;;;;;;;10.60;3.60;;;;;;;14.45;36.52;98479.06;103108;1256;138402;-71
2023/03/08 09:19:32;;;;;;;8.70;3.60;;;;;;;14.96;36.59;98477.52;103212;1256;97743;-71
2023/03/08 09:21:59;;;;;;;5.60;3.70;;;;;;;15.29;36.25;98479.64;103219;1257;110715;-73
2023/03/08 09:24:26;;;;;;;7.00;3.60;;;;;;;15.33;35.29;98477.23;103280;1258;137639;-74
2023/03/08 09:26:54;;;;;;;6.80;3.40;;;;;;;15.43;35.64;98478.39;103203;1256;97866;-73
2023/03/08 09:29:21;;;;;;;7.60;3.30;;;;;;;15.52;34.89;98480.84;103019;1256;137600;-73
2023/03/08 09:31:48;;;;;;;5.20;3.40;;;;;;;15.66;34.97;98475.16;103197;1256;97801;-74
2023/03/08 09:34:15;;;;;;;7.80;3.70;;;;;;;15.98;34.73;98479.19;103250;1256;110559;-74
2023/03/08 09:36:44;;;;;;;5.90;3.40;;;;;;;15.74;34.41;98482.35;103077;1257;137574;-73
2023/03/08 09:39:13;;;;;;;6.90;3.60;;;;;;;15.11;34.28;98478.67;103199;1256;97723;-72
2023/03/08 09:41:51;;;;;;;6.90;3.60;;;;;;;14.89;35.26;98476.33;103427;1254;137920;-72
2023/03/08 09:44:42;;;;;;;6.10;3.10;;;;;;;15.26;34.44;98468.33;103209;1256;97871;-72
2023/03/08 09:47:18;;;;;;;7.00;3.10;;;;;;;15.54;34.60;98464.73;103166;1256;137701;-73
2023/03/08 09:49:52;;;;;;;6.10;3.40;;;;;;;15.68;34.33;98469.85;103164;1256;109079;-71
2023/03/08 09:52:29;;;;;;;8.60;3.20;;;;;;;15.84;34.02;98474.06;103145;1258;97761;-70
2023/03/08 09:54:55;;;;;;;;;;;;;;;15.80;33.66;98472.77;103258;1256;137427;-72
2023/03/08 09:57:28;;;;;;;7.70;3.00;;;;;;;15.95;33.35;98469.79;103163;1258;97819;-73
2023/03/08 09:59:58;;;;;;;6.20;3.20;;;;;;;16.03;32.90;98470.12;103145;1257;137603;-72
2023/03/08 10:02:36;;;;;;;11.20;3.10;;;;;;;15.51;32.99;98469.46;103090;1258;108282;-72
2023/03/08 10:05:12;;;;;;;6.90;3.30;;;;;;;15.31;33.26;98481.08;103095;1256;138413;-73
2023/03/08 10:07:49;;;;;;;4.80;2.90;;;;;;;14.89;32.27;98475.67;103104;1256;109422;-71
2023/03/08 10:10:29;;;;;;;8.10;3.30;;;;;;;13.78;32.82;98471.98;103191;1256;97788;-72
2023/03/08 10:13:11;;;;;;;7.20;3.00;;;;;;;12.69;33.25;98476.58;103162;1258;151387;-74
2023/03/08 10:15:43;;;;;;;8.80;3.80;;;;;;;11.71;34.45;98484.88;103305;1257;107765;-71
2023/03/08 10:18:17;;;;;;;9.00;3.40;;;;;;;10.83;35.10;98488.85;103120;1258;137713;-72
2023/03/08 10:20:45;;;;;;;8.10;3.70;;;;;;;10.23;36.38;98484.64;102475;1258;1016075;-74
2023/03/08 10:23:16;;;;;;;6.20;3.50;;;;;;;10.11;37.27;98485.36;103616;1256;138386;-72
2023/03/08 10:25:44;;;;;;;6.00;3.60;;;;;;;10.39;37.54;98490.17;103228;1258;111746;-71
2023/03/08 10:28:15;;;;;;;5.70;3.70;;;;;;;10.69;37.23;98486.45;103197;1256;108096;-71
2023/03/08 10:30:47;;;;;;;5.40;3.10;;;;;;;10.46;37.11;98497.88;102366;1256;1003625;-72
2023/03/08 10:33:18;;;;;;;10.00;4.20;;;;;;;9.99;36.98;98491.80;103195;1256;110519;-73
2023/03/08 10:35:56;;;;;;;5.90;3.60;;;;;;;9.38;37.63;98502.48;102898;1257;137626;-70
2023/03/08 10:38:26;;;;;;;7.20;4.40;;;;;;;8.84;38.42;98506.45;103622;1254;111201;-73
2023/03/08 10:41:01;;;;;;;11.80;3.90;;;;;;;8.42;39.03;98501.54;102698;1257;1003631;-72
2023/03/08 10:43:31;;;;;;;9.00;4.60;;;;;;;7.94;39.64;98504.98;103176;1256;97779;-73
2023/03/08 10:46:05;;;;;;;6.80;4.10;;;;;;;7.57;40.58;98509.88;103203;1256;108134;-73
2023/03/08 10:48:33;;;;;;;11.80;4.80;;;;;;;7.28;41.22;98511.95;102961;1261;137239;-72
2023/03/08 10:51:05;;;;;;;8.60;4.40;;;;;;;7.04;41.83;98510.46;103275;1256;109937;-72
2023/03/08 10:53:33;;;;;;;10.40;4.70;;;;;;;6.84;42.16;98510.66;103069;1258;137412;-72
2023/03/08 10:56:02;;;;;;;9.00;4.50;;;;;;;6.57;42.61;98514.27;103246;1254;98206;-74
2023/03/08 10:58:38;;;;;;;7.10;4.10;;;;;;;6.32;43.28;98510.52;103174;1256;106846;-70
2023/03/08 11:01:23;;;;;;;9.00;4.40;;;;;;;6.08;43.78;98508.79;103068;1254;137543;-72
2023/03/08 11:04:02;;;;;;;11.90;4.60;;;;;;;5.84;44.38;98520.77;103150;1259;111397;-71
2023/03/08 11:06:30;;;;;;;10.20;4.90;;;;;;;5.69;45.05;98517.41;102306;1257;1003306;-72
2023/03/08 11:08:59;;;;;;;9.90;4.80;;;;;;;5.64;45.51;98520.02;103210;1256;98343;-73
2023/03/08 11:11:27;;;;;;;9.50;5.20;;;;;;;5.59;45.63;98524.37;103310;1258;137244;-72
2023/03/08 11:13:56;;;;;;;9.50;6.10;;;;;;;5.48;45.44;98526.18;103062;1257;97855;-71
2023/03/08 11:16:48;;;;;;;7.40;4.50;;;;;;;5.32;45.84;98524.19;102507;1256;1003484;-71
2023/03/08 11:19:38;;;;;;;9.20;4.80;;;;;;;5.16;45.82;98526.55;102994;1256;137268;-72
2023/03/08 11:22:18;;;;;;;8.00;4.40;;;;;;;5.09;46.29;98523.86;103180;1259;99908;-73
2023/03/08 11:25:01;;;;;;;7.30;4.10;;;;;;;5.08;46.25;98519.63;102974;1255;137034;-72
2023/03/08 11:27:44;;;;;;;7.60;4.20;;;;;;;5.46;46.66;98525.90;103207;1259;97797;-72
2023/03/08 11:30:26;;;;;;;9.60;4.60;;;;;;;5.68;45.94;98525.55;103133;1258;137165;-72
2023/03/08 11:33:14;;;;;;;9.50;5.60;;;;;;;5.81;45.95;98520.36;103408;1256;110508;-72
2023/03/08 11:35:50;;;;;;;9.50;5.30;;;;;;;5.94;45.85;98517.29;103024;1259;137425;-74
2023/03/08 11:38:22;;;;;;;9.10;4.30;;;;;;;6.06;45.65;98511.98;103204;1257;106651;-73
2023/03/08 11:41:19;;;;;;;7.60;4.40;;;;;;;6.18;45.65;98504.73;103138;1254;137851;-73
2023/03/08 11:44:05;;;;;;;8.40;4.90;;;;;;;6.18;45.62;98502.31;103117;1257;113908;-73
2023/03/08 11:46:44;;;;;;;9.90;3.80;;;;;;;6.16;45.68;98498.12;103053;1259;107795;-72
2023/03/08 11:49:29;;;;;;;6.70;4.20;;;;;;;6.24;45.30;98499.66;103860;1255;137165;-73
2023/03/08 11:52:07;;;;;;;11.10;3.70;;;;;;;6.58;45.50;98493.66;103194;1256;107678;-74